Time;durP1;ratioP1;P1;durP2;ratioP2;P2;SDS_P1;SDS_P2;PMS_P1;PMS_P2;Temp;Humidity;BMP_temperature;BMP_pressure;BME280_temperature;BME280_humidity;BME280_pressure;Samples;Min_cycle;Max_cycle;Signal;HPM_P1;HPM_P2
2021/06/29 00:01:42;;;;;;;2.58;1.10;;;;;;;17.58;53.73;101301.09;3568499;40;20162;-77
2021/06/29 00:04:09;;;;;;;1.85;1.00;;;;;;;17.60;53.77;101299.25;3576098;40;20069;-78
2021/06/29 00:06:37;;;;;;;3.80;1.33;;;;;;;17.59;54.95;101302.84;3548650;40;20049;-78
2021/06/29 00:09:29;;;;;;;6.05;2.10;;;;;;;17.61;52.56;101306.25;3574434;40;20482;-78
2021/06/29 00:11:59;;;;;;;4.97;1.70;;;;;;;17.58;54.71;101304.59;3576355;40;20080;-78
2021/06/29 00:14:30;;;;;;;5.93;2.25;;;;;;;17.56;54.71;101302.94;3572030;40;20057;-78
2021/06/29 00:16:58;;;;;;;8.38;3.72;;;;;;;17.54;55.11;101296.88;3570999;40;20106;-78
2021/06/29 00:19:27;;;;;;;7.28;2.70;;;;;;;17.57;54.16;101310.78;3557489;40;20052;-77
2021/06/29 00:21:55;;;;;;;7.68;2.63;;;;;;;17.58;53.87;101306.38;3570452;40;20084;-78
2021/06/29 00:24:23;;;;;;;10.27;3.53;;;;;;;17.49;54.14;101297.06;3576467;40;20116;-78
2021/06/29 00:26:50;;;;;;;4.95;1.85;;;;;;;17.49;54.51;101301.50;3574966;40;20052;-78
2021/06/29 00:29:17;;;;;;;13.68;5.35;;;;;;;17.48;55.36;101297.13;3567589;40;20598;-78
2021/06/29 00:31:46;;;;;;;14.10;6.03;;;;;;;17.45;53.93;101302.53;3565516;40;20080;-78
2021/06/29 00:34:14;;;;;;;13.32;5.40;;;;;;;17.41;55.12;101298.31;3576135;40;20056;-78
2021/06/29 00:36:41;;;;;;;;;;;;;;;17.38;51.50;101304.56;3575596;40;20068;-78
2021/06/29 00:39:09;;;;;;;6.85;2.42;;;;;;;17.29;53.27;101295.25;3561134;40;19947;-78
2021/06/29 00:41:38;;;;;;;9.80;4.20;;;;;;;17.24;53.75;101294.59;3553304;40;20060;-78
2021/06/29 00:44:05;;;;;;;6.35;2.60;;;;;;;17.20;53.56;101295.63;3570869;40;20073;-78
2021/06/29 00:46:38;;;;;;;5.27;1.93;;;;;;;17.12;53.20;101289.78;3565662;40;20090;-78
2021/06/29 00:49:07;;;;;;;9.70;3.67;;;;;;;17.09;54.70;101296.06;3553544;40;20413;-78
2021/06/29 00:51:34;;;;;;;6.72;2.35;;;;;;;17.05;53.76;101302.38;3566966;40;20748;-78
2021/06/29 00:54:15;;;;;;;11.98;4.55;;;;;;;17.01;52.85;101298.16;3552270;40;20065;-78
2021/06/29 00:56:44;;;;;;;7.03;2.75;;;;;;;16.92;53.69;101285.31;3558517;40;20977;-78
2021/06/29 00:59:13;;;;;;;8.43;3.30;;;;;;;16.88;54.44;101280.22;3565254;40;20065;-77
2021/06/29 01:01:41;;;;;;;5.97;2.40;;;;;;;16.81;54.47;101277.81;3569477;40;20089;-78
2021/06/29 01:04:09;;;;;;;8.27;3.35;;;;;;;16.69;54.91;101266.88;3574052;40;20085;-78
2021/06/29 01:06:37;;;;;;;11.70;4.32;;;;;;;16.75;55.59;101282.50;3560633;40;20057;-78
2021/06/29 01:09:05;;;;;;;10.45;4.22;;;;;;;16.72;55.36;101283.44;3559960;40;20122;-78
2021/06/29 01:11:32;;;;;;;10.75;4.85;;;;;;;16.62;56.26;101271.50;3567883;40;20084;-78
2021/06/29 01:14:13;;;;;;;13.30;5.10;;;;;;;16.61;54.83;101280.34;3564421;40;20466;-78
2021/06/29 01:16:41;;;;;;;11.52;4.10;;;;;;;16.49;56.37;101276.41;3553200;40;20085;-78
2021/06/29 01:19:17;;;;;;;9.20;3.55;;;;;;;16.45;55.63;101285.34;3560788;40;20060;-77
2021/06/29 01:21:46;;;;;;;11.00;3.40;;;;;;;16.36;56.55;101275.16;3556929;40;20053;-78
2021/06/29 01:24:21;;;;;;;9.07;3.95;;;;;;;16.33;55.62;101281.41;3559443;40;20057;-78
2021/06/29 01:27:00;;;;;;;6.20;2.75;;;;;;;16.20;55.12;101272.22;3570990;40;20057;-78
2021/06/29 01:29:51;;;;;;;8.30;3.30;;;;;;;16.21;55.38;101287.09;3555332;40;20069;-78
2021/06/29 01:32:19;;;;;;;10.55;3.45;;;;;;;16.12;56.83;101276.94;3558202;40;20090;-77
2021/06/29 01:34:47;;;;;;;6.22;2.50;;;;;;;15.97;56.16;101269.59;3562687;40;20060;-78
2021/06/29 01:37:20;;;;;;;10.85;4.22;;;;;;;15.96;55.94;101270.47;3556315;40;20397;-77
2021/06/29 01:40:02;;;;;;;8.50;3.35;;;;;;;15.94;56.54;101280.22;3555690;40;20062;-78
2021/06/29 01:42:31;;;;;;;8.30;3.15;;;;;;;15.85;57.82;101278.75;3543219;40;20082;-78
2021/06/29 01:45:01;;;;;;;7.50;2.70;;;;;;;15.81;57.06;101283.31;3550911;40;20058;-78
2021/06/29 01:47:35;;;;;;;8.45;3.72;;;;;;;15.74;57.45;101276.50;3546297;40;20076;-78
2021/06/29 01:50:15;;;;;;;6.82;2.63;;;;;;;15.71;56.29;101281.91;3553119;40;20742;-78
2021/06/29 01:52:45;;;;;;;5.60;2.13;;;;;;;15.67;57.91;101275.00;3550839;40;20501;-78
2021/06/29 01:55:15;;;;;;;5.13;2.08;;;;;;;15.60;56.77;101280.50;3576606;40;20073;-78
2021/06/29 01:57:46;;;;;;;8.20;3.30;;;;;;;15.56;57.71;101277.09;3556724;40;20073;-78
2021/06/29 02:00:19;;;;;;;7.38;3.10;;;;;;;15.56;57.27;101274.47;3559634;40;20070;-78
2021/06/29 02:02:47;;;;;;;6.95;3.17;;;;;;;15.44;59.28;101267.00;3560207;40;20072;-78
2021/06/29 02:05:16;;;;;;;6.72;3.20;;;;;;;15.46;58.52;101276.59;3566924;40;20052;-78
2021/06/29 02:07:44;;;;;;;9.68;3.80;;;;;;;15.42;58.46;101280.22;3561650;40;20081;-78
2021/06/29 02:10:14;;;;;;;8.52;3.58;;;;;;;15.36;58.86;101279.53;3577279;40;20053;-78
2021/06/29 02:12:44;;;;;;;8.25;2.75;;;;;;;15.35;58.38;101294.47;3563717;40;20076;-77
2021/06/29 02:15:19;;;;;;;5.78;2.42;;;;;;;15.28;57.46;101288.56;3565054;40;20842;-78
2021/06/29 02:17:48;;;;;;;10.57;3.33;;;;;;;15.21;58.43;101280.94;3556650;40;20053;-77
2021/06/29 02:20:17;;;;;;;8.02;3.42;;;;;;;15.19;58.70;101286.22;3569466;40;20447;-78
2021/06/29 02:22:46;;;;;;;8.52;3.80;;;;;;;15.19;59.42;101293.25;3570837;40;20808;-78
2021/06/29 02:25:14;;;;;;;7.40;3.03;;;;;;;15.14;59.29;101289.91;3565037;40;20073;-78
2021/06/29 02:27:41;;;;;;;5.90;2.47;;;;;;;15.08;58.83;101288.34;3571730;40;20061;-78
2021/06/29 02:30:10;;;;;;;9.20;3.60;;;;;;;15.04;59.21;101284.09;3575259;40;20114;-78
2021/06/29 02:32:36;;;;;;;6.95;3.28;;;;;;;14.96;58.80;101292.25;3548958;40;20080;-78
2021/06/29 02:35:06;;;;;;;6.85;3.22;;;;;;;14.98;58.93;101300.94;3547774;40;20066;-78
2021/06/29 02:37:36;;;;;;;7.75;3.38;;;;;;;14.95;58.67;101297.53;3565042;40;20041;-78
2021/06/29 02:40:05;;;;;;;8.57;3.85;;;;;;;14.89;59.35;101297.72;3577711;40;20068;-78
2021/06/29 02:42:33;;;;;;;7.00;3.20;;;;;;;14.90;59.23;101302.97;3578486;40;20061;-78
2021/06/29 02:45:06;;;;;;;6.25;2.92;;;;;;;14.84;58.79;101297.00;3572717;40;20052;-78
2021/06/29 02:47:35;;;;;;;7.45;2.97;;;;;;;14.77;59.06;101288.44;3581332;40;20072;-78
2021/06/29 02:50:05;;;;;;;6.85;2.75;;;;;;;14.81;58.87;101302.38;3578914;40;20064;-78
2021/06/29 02:52:36;;;;;;;5.50;2.50;;;;;;;14.76;59.28;101295.47;3571261;40;20057;-78
2021/06/29 02:55:19;;;;;;;10.25;3.92;;;;;;;14.77;58.11;101286.69;3573609;40;20430;-78
2021/06/29 02:57:46;;;;;;;7.38;3.22;;;;;;;14.70;58.76;101279.91;3562876;40;20064;-78
2021/06/29 03:00:18;;;;;;;5.93;2.70;;;;;;;14.75;59.06;101290.25;3559330;40;20366;-78
2021/06/29 03:02:47;;;;;;;9.02;3.33;;;;;;;14.68;59.99;101286.97;3573459;40;20378;-78
2021/06/29 03:05:19;;;;;;;9.55;3.97;;;;;;;14.61;59.13;101276.69;3584646;40;20450;-78
2021/06/29 03:07:46;;;;;;;8.52;3.30;;;;;;;14.51;60.65;101279.59;3557645;40;20504;-78
2021/06/29 03:10:15;;;;;;;8.63;3.92;;;;;;;14.54;60.69;101286.50;3557560;40;20052;-78
2021/06/29 03:12:47;;;;;;;8.23;3.42;;;;;;;14.51;59.42;101294.50;3566823;40;20056;-78
2021/06/29 03:15:16;;;;;;;7.88;3.70;;;;;;;14.48;59.51;101290.19;3557192;40;20175;-78
2021/06/29 03:17:49;;;;;;;7.35;3.38;;;;;;;14.44;60.25;101292.91;3574002;40;20076;-78
2021/06/29 03:20:18;;;;;;;6.53;2.90;;;;;;;14.39;59.55;101289.56;3556352;40;20073;-78
2021/06/29 03:22:47;;;;;;;9.40;4.25;;;;;;;14.36;61.03;101287.03;3564895;40;20273;-78
2021/06/29 03:25:14;;;;;;;10.20;4.07;;;;;;;14.27;61.35;101281.13;3568794;40;20068;-78
2021/06/29 03:28:07;;;;;;;8.20;3.27;;;;;;;14.32;58.66;101290.66;3556475;40;20046;-77
2021/06/29 03:30:36;;;;;;;9.20;3.53;;;;;;;14.20;60.57;101278.72;3561988;40;20123;-77
2021/06/29 03:33:06;;;;;;;9.27;4.30;;;;;;;14.20;60.78;101287.47;3579089;40;20108;-78
2021/06/29 03:35:33;;;;;;;11.15;3.75;;;;;;;14.16;60.55;101282.34;3561802;40;20045;-78
2021/06/29 03:38:04;;;;;;;8.52;3.58;;;;;;;14.16;60.27;101287.59;3567194;40;20467;-78
2021/06/29 03:40:39;;;;;;;9.18;3.67;;;;;;;14.17;59.82;101282.28;3569557;40;20096;-78
2021/06/29 03:43:07;;;;;;;10.45;4.00;;;;;;;14.10;62.49;101277.28;3576973;40;20441;-78
2021/06/29 03:45:35;;;;;;;;;;;;;;;14.12;57.69;101281.56;3546289;40;20045;-78
2021/06/29 03:48:03;;;;;;;7.72;3.58;;;;;;;14.06;61.01;101278.25;3558204;40;20381;-78
2021/06/29 03:50:30;;;;;;;10.70;4.22;;;;;;;14.01;61.74;101268.72;3575194;40;21706;-78
2021/06/29 03:52:58;;;;;;;9.43;4.00;;;;;;;14.03;62.32;101277.41;3568615;40;20065;-78
2021/06/29 03:55:26;;;;;;;9.77;3.53;;;;;;;14.01;62.05;101283.63;3575255;40;20109;-78
2021/06/29 03:57:53;;;;;;;9.80;4.07;;;;;;;13.99;62.13;101280.19;3582605;40;20271;-78
2021/06/29 04:00:25;;;;;;;12.00;4.80;;;;;;;13.96;60.46;101280.28;3571546;40;20061;-77
2021/06/29 04:03:06;;;;;;;8.82;4.03;;;;;;;13.94;59.90;101271.59;3557966;40;20056;-78
2021/06/29 04:05:33;;;;;;;10.35;4.07;;;;;;;13.88;61.94;101269.09;3577576;40;20084;-77
2021/06/29 04:08:00;;;;;;;8.48;3.22;;;;;;;13.87;62.17;101270.88;3586456;40;20825;-78
2021/06/29 04:10:33;;;;;;;8.93;3.83;;;;;;;13.88;60.58;101287.47;3568646;40;20049;-77
2021/06/29 04:13:01;;;;;;;10.10;3.83;;;;;;;13.82;62.62;101278.00;3559242;40;20059;-78
2021/06/29 04:15:28;;;;;;;9.32;3.55;;;;;;;13.76;62.47;101273.78;3568984;40;20049;-78
2021/06/29 04:17:57;;;;;;;7.55;3.55;;;;;;;13.72;62.44;101260.78;3588219;40;20390;-78
2021/06/29 04:20:25;;;;;;;9.10;3.88;;;;;;;13.73;62.75;101273.84;3586498;40;20056;-78
2021/06/29 04:22:53;;;;;;;;;;;;;;;13.76;58.64;101279.03;3588332;40;20074;-78
2021/06/29 04:25:20;;;;;;;6.05;2.80;;;;;;;13.70;61.92;101273.97;3562368;40;19967;-78
2021/06/29 04:27:53;;;;;;;9.52;3.80;;;;;;;13.68;61.56;101272.25;3553557;40;20061;-77
2021/06/29 04:30:20;;;;;;;5.03;2.05;;;;;;;13.65;61.37;101281.09;3563363;40;20057;-78
2021/06/29 04:33:13;;;;;;;7.78;3.13;;;;;;;13.68;59.56;101281.00;3562707;40;21384;-77
2021/06/29 04:35:47;;;;;;;11.40;4.22;;;;;;;13.66;61.83;101277.56;3565202;40;20113;-78
2021/06/29 04:38:16;;;;;;;10.27;4.07;;;;;;;13.63;63.40;101276.75;3566115;40;20056;-78
2021/06/29 04:41:11;;;;;;;7.32;2.67;;;;;;;13.63;60.56;101282.88;3558558;40;20033;-77
2021/06/29 04:43:43;;;;;;;9.38;4.00;;;;;;;13.58;62.54;101269.00;3556855;40;20050;-76
2021/06/29 04:46:12;;;;;;;6.40;2.92;;;;;;;13.52;63.15;101263.94;3541662;40;20073;-77
2021/06/29 04:48:40;;;;;;;9.00;3.05;;;;;;;13.59;63.63;101281.25;3564424;40;20040;-78
2021/06/29 04:51:08;;;;;;;7.05;2.58;;;;;;;13.62;63.27;101280.31;3546091;40;20077;-78
2021/06/29 04:53:36;;;;;;;12.82;4.00;;;;;;;13.62;62.73;101275.91;3576833;40;20075;-78
2021/06/29 04:56:18;;;;;;;8.57;3.22;;;;;;;13.63;62.86;101287.25;3580078;40;22085;-77
2021/06/29 04:58:52;;;;;;;8.75;2.95;;;;;;;13.67;62.89;101284.53;3549695;40;20432;-78
2021/06/29 05:01:21;;;;;;;11.18;4.70;;;;;;;13.63;63.80;101277.63;3556845;40;20054;-77
2021/06/29 05:03:51;;;;;;;8.75;3.60;;;;;;;13.67;63.22;101284.53;3561154;40;20079;-78
2021/06/29 05:06:19;;;;;;;9.65;4.20;;;;;;;13.64;63.84;101282.00;3575268;40;20060;-79
2021/06/29 05:08:47;;;;;;;8.98;3.50;;;;;;;13.67;64.18;101276.66;3578285;40;20102;-78
2021/06/29 05:11:14;;;;;;;9.25;3.63;;;;;;;13.64;64.79;101279.38;3558116;40;20056;-77
2021/06/29 05:13:42;;;;;;;7.10;3.00;;;;;;;13.67;63.64;101273.16;3579178;40;20059;-78
2021/06/29 05:16:10;;;;;;;6.85;3.53;;;;;;;13.69;64.05;101272.25;3573353;40;20056;-78
2021/06/29 05:19:03;;;;;;;8.57;2.83;;;;;;;13.75;61.50;101274.69;3571699;40;20053;-78
2021/06/29 05:21:30;;;;;;;8.80;4.07;;;;;;;13.66;64.76;101261.81;3564173;40;20057;-78
2021/06/29 05:24:06;;;;;;;12.52;3.90;;;;;;;13.73;64.38;101271.22;3565197;40;20045;-78
2021/06/29 05:26:35;;;;;;;9.57;3.97;;;;;;;13.68;64.76;101257.38;3564007;40;20079;-78
2021/06/29 05:29:05;;;;;;;10.60;4.05;;;;;;;13.77;65.42;101267.63;3558481;40;20069;-78
2021/06/29 05:31:32;;;;;;;5.43;2.28;;;;;;;13.82;64.82;101274.53;3573546;40;20202;-78
2021/06/29 05:34:05;;;;;;;5.95;2.67;;;;;;;13.82;64.07;101274.53;3561298;40;20044;-77
2021/06/29 05:36:33;;;;;;;14.32;4.32;;;;;;;13.82;66.19;101270.13;3564961;40;20045;-78
2021/06/29 05:39:01;;;;;;;8.32;3.15;;;;;;;13.89;65.93;101281.31;3561975;40;20482;-78
2021/06/29 05:41:27;;;;;;;12.50;4.18;;;;;;;13.91;65.93;101277.75;3583408;40;20052;-78
2021/06/29 05:43:56;;;;;;;8.27;3.77;;;;;;;13.91;65.32;101271.66;3568734;40;20752;-77
2021/06/29 05:46:28;;;;;;;7.93;3.83;;;;;;;14.02;65.23;101282.72;3563688;40;20061;-77
2021/06/29 05:48:56;;;;;;;7.63;3.17;;;;;;;13.93;65.86;101269.84;3583285;40;20063;-77
2021/06/29 05:51:23;;;;;;;;;;;;;;;14.11;61.48;101279.84;3567716;40;20798;-77
2021/06/29 05:53:56;;;;;;;9.40;2.77;;;;;;;14.13;63.94;101282.41;3573088;40;19949;-77
2021/06/29 05:56:27;;;;;;;9.02;3.67;;;;;;;14.12;64.96;101286.81;3563118;40;20112;-78
2021/06/29 05:58:54;;;;;;;6.88;3.10;;;;;;;14.17;65.70;101290.16;3578528;40;20057;-78
2021/06/29 06:01:21;;;;;;;6.97;2.42;;;;;;;14.17;65.09;101284.91;3564718;40;20365;-78
2021/06/29 06:04:09;;;;;;;8.43;3.42;;;;;;;14.27;65.61;101291.63;3570360;40;20418;-78
2021/06/29 06:06:39;;;;;;;;;;;;;;;14.39;61.59;101297.44;3563057;40;20061;-78
2021/06/29 06:09:06;;;;;;;8.38;3.50;;;;;;;14.38;66.27;101287.84;3568986;40;19936;-78
2021/06/29 06:11:33;;;;;;;11.00;4.40;;;;;;;14.35;66.13;101278.28;3583440;40;20134;-78
2021/06/29 06:14:06;;;;;;;8.63;3.20;;;;;;;14.46;64.32;101291.97;3578745;40;20115;-78
2021/06/29 06:16:34;;;;;;;10.13;3.88;;;;;;;14.47;65.12;101293.72;3560979;40;20306;-78
2021/06/29 06:19:01;;;;;;;7.88;3.22;;;;;;;14.47;65.25;101288.47;3573362;40;20049;-78
2021/06/29 06:21:28;;;;;;;8.02;3.90;;;;;;;14.56;66.09;101308.38;3579958;40;20100;-77
2021/06/29 06:23:54;;;;;;;7.43;3.67;;;;;;;14.53;65.33;101298.78;3580750;40;20059;-78
2021/06/29 06:26:23;;;;;;;11.65;3.90;;;;;;;14.62;65.03;101296.81;3570126;40;20053;-78
2021/06/29 06:28:50;;;;;;;5.28;2.30;;;;;;;14.63;64.57;101299.38;3560979;40;20053;-78
2021/06/29 06:31:17;;;;;;;7.85;3.17;;;;;;;14.59;66.11;101292.47;3583183;40;20060;-78
2021/06/29 06:33:49;;;;;;;9.35;3.55;;;;;;;14.71;65.79;101296.53;3578353;40;20098;-78
2021/06/29 06:36:16;;;;;;;9.30;3.63;;;;;;;14.66;65.66;101280.91;3563829;40;20067;-78
2021/06/29 06:38:42;;;;;;;6.55;3.38;;;;;;;14.66;66.22;101283.53;3576446;40;20450;-78
2021/06/29 06:41:39;;;;;;;8.10;3.90;;;;;;;14.93;63.15;101315.13;3569856;40;20053;-78
2021/06/29 06:44:07;;;;;;;8.95;3.95;;;;;;;14.91;65.83;101304.66;3559462;40;20113;-78
2021/06/29 06:46:34;;;;;;;8.80;2.85;;;;;;;14.91;65.20;101303.81;3570282;40;20049;-77
2021/06/29 06:49:03;;;;;;;10.97;3.63;;;;;;;14.98;65.42;101310.59;3581545;40;20164;-77
2021/06/29 06:51:30;;;;;;;7.50;3.55;;;;;;;15.02;65.40;101306.97;3574181;40;20071;-78
2021/06/29 06:53:58;;;;;;;9.23;4.03;;;;;;;15.12;65.02;101316.28;3577093;40;20388;-77
2021/06/29 06:56:25;;;;;;;7.95;4.10;;;;;;;15.13;65.02;101310.09;3571225;40;20343;-78
2021/06/29 06:58:53;;;;;;;9.10;3.40;;;;;;;15.17;65.28;101311.75;3582491;40;20426;-78
2021/06/29 07:01:23;;;;;;;11.20;3.60;;;;;;;15.25;64.61;101308.84;3577360;40;20052;-77
2021/06/29 07:03:51;;;;;;;9.20;3.70;;;;;;;15.22;64.58;101301.94;3563131;40;20057;-78
2021/06/29 07:06:19;;;;;;;9.20;3.58;;;;;;;15.25;65.10;101307.06;3554017;40;20115;-78
2021/06/29 07:08:46;;;;;;;;;;;;;;;15.42;61.56;101327.59;3575315;40;20064;-78
2021/06/29 07:11:16;;;;;;;7.55;3.03;;;;;;;15.43;63.89;101324.03;3571885;40;19973;-78
2021/06/29 07:13:49;;;;;;;7.60;2.83;;;;;;;15.48;63.14;101321.25;3565724;40;20061;-78
2021/06/29 07:16:19;;;;;;;8.68;4.10;;;;;;;15.53;64.72;101324.59;3565875;40;20072;-78
2021/06/29 07:18:46;;;;;;;6.00;2.55;;;;;;;15.55;64.99;101333.31;3570787;40;20049;-79
2021/06/29 07:21:38;;;;;;;6.07;2.90;;;;;;;15.70;62.30;101338.09;3578590;40;20080;-78
2021/06/29 07:24:08;;;;;;;4.68;2.38;;;;;;;15.65;64.11;101324.22;3576366;40;20065;-78
2021/06/29 07:26:38;;;;;;;6.97;2.97;;;;;;;15.78;63.89;101336.06;3576728;40;20116;-78
2021/06/29 07:29:07;;;;;;;8.95;3.75;;;;;;;15.82;64.73;101332.41;3561951;40;21947;-78
2021/06/29 07:31:36;;;;;;;8.00;3.15;;;;;;;15.91;64.35;101325.09;3563813;40;20064;-78
2021/06/29 07:34:06;;;;;;;10.93;3.63;;;;;;;15.96;64.30;101323.16;3564118;40;20436;-78
2021/06/29 07:36:36;;;;;;;7.50;3.05;;;;;;;16.08;64.69;101328.00;3582204;40;20064;-78
2021/06/29 07:39:05;;;;;;;8.00;3.63;;;;;;;16.13;64.29;101325.22;3562613;40;20185;-78
2021/06/29 07:41:36;;;;;;;7.53;2.95;;;;;;;16.29;64.23;101329.88;3574383;40;20089;-78
2021/06/29 07:44:07;;;;;;;9.10;3.53;;;;;;;16.41;63.52;101332.97;3557978;40;20085;-78
2021/06/29 07:46:36;;;;;;;9.52;3.72;;;;;;;16.53;63.43;101337.81;3555362;40;20057;-77
2021/06/29 07:49:04;;;;;;;8.63;4.22;;;;;;;16.62;63.67;101345.34;3561874;40;20070;-78
2021/06/29 07:51:32;;;;;;;5.47;2.55;;;;;;;16.70;62.64;101343.28;3564742;40;20069;-78
2021/06/29 07:54:00;;;;;;;8.85;3.38;;;;;;;16.77;62.73;101350.06;3581644;40;20056;-78
2021/06/29 07:56:27;;;;;;;8.10;3.38;;;;;;;16.84;62.73;101346.31;3561897;40;21310;-78
2021/06/29 07:58:55;;;;;;;6.18;2.97;;;;;;;16.89;62.25;101337.34;3573191;40;20108;-78
2021/06/29 08:01:22;;;;;;;6.85;3.22;;;;;;;16.91;62.12;101335.50;3584953;40;20134;-78
2021/06/29 08:03:50;;;;;;;8.07;3.28;;;;;;;17.01;62.01;101331.59;3586660;40;20068;-78
2021/06/29 08:06:19;;;;;;;;;;;;;;;17.15;60.23;101337.19;3579359;40;20060;-78
2021/06/29 08:08:49;;;;;;;10.32;3.53;;;;;;;17.19;61.79;101344.06;3572577;40;19948;-78
2021/06/29 08:11:23;;;;;;;7.82;3.15;;;;;;;17.27;61.21;101344.59;3564692;40;20524;-78
2021/06/29 08:13:53;;;;;;;6.35;3.00;;;;;;;17.30;60.48;101344.50;3559783;40;20061;-78
2021/06/29 08:16:25;;;;;;;7.05;3.42;;;;;;;17.37;60.72;101335.38;3553219;40;20062;-78
2021/06/29 08:18:54;;;;;;;8.07;3.33;;;;;;;17.40;62.10;101338.84;3563087;40;20057;-78
2021/06/29 08:21:26;;;;;;;10.57;3.47;;;;;;;17.44;61.16;101337.78;3567401;40;20411;-78
2021/06/29 08:23:55;;;;;;;5.47;2.72;;;;;;;17.51;61.07;101352.44;3578410;40;20071;-78
2021/06/29 08:26:28;;;;;;;4.63;2.42;;;;;;;17.59;60.48;101347.72;3561948;40;20056;-78
2021/06/29 08:29:03;;;;;;;7.50;2.97;;;;;;;17.63;60.56;101351.94;3574794;40;20122;-78
2021/06/29 08:31:31;;;;;;;5.10;2.45;;;;;;;17.72;60.57;101356.84;3585078;40;21265;-79
2021/06/29 08:34:01;;;;;;;4.82;2.70;;;;;;;17.80;60.77;101360.06;3573271;40;20045;-78
2021/06/29 08:36:30;;;;;;;6.03;2.58;;;;;;;17.82;61.05;101352.06;3561994;40;20067;-78
2021/06/29 08:39:04;;;;;;;8.25;2.83;;;;;;;18.02;60.10;101364.44;3576644;40;20417;-78
2021/06/29 08:41:33;;;;;;;9.35;3.90;;;;;;;18.09;59.98;101363.22;3569506;40;20128;-78
2021/06/29 08:44:03;;;;;;;8.68;3.28;;;;;;;18.24;59.82;101364.34;3576380;40;20081;-79
2021/06/29 08:46:31;;;;;;;6.10;3.00;;;;;;;18.33;58.97;101371.88;3562673;40;20399;-78
2021/06/29 08:48:58;;;;;;;7.57;3.40;;;;;;;18.41;59.20;101362.69;3573035;40;20428;-78
2021/06/29 08:51:51;;;;;;;5.30;2.58;;;;;;;18.67;59.19;101371.22;3566540;40;20053;-78
2021/06/29 08:54:21;;;;;;;6.90;3.47;;;;;;;18.79;58.83;101373.31;3560435;40;20044;-78
2021/06/29 08:56:51;;;;;;;6.95;3.40;;;;;;;18.92;58.90;101368.34;3552838;40;20078;-78
2021/06/29 08:59:17;;;;;;;6.35;3.00;;;;;;;19.05;58.33;101363.31;3559870;40;20089;-78
2021/06/29 09:01:46;;;;;;;6.97;2.67;;;;;;;19.20;58.38;101362.56;3557601;40;20393;-78
2021/06/29 09:04:13;;;;;;;7.40;3.35;;;;;;;19.28;57.39;101365.72;3564706;40;20276;-78
2021/06/29 09:06:41;;;;;;;7.03;3.30;;;;;;;19.40;57.17;101365.09;3552088;40;20073;-77
2021/06/29 09:09:27;;;;;;;6.18;3.03;;;;;;;19.57;56.95;101366.09;3571812;40;20065;-78
2021/06/29 09:11:56;;;;;;;6.70;3.20;;;;;;;19.66;57.64;101382.41;3559140;40;20361;-78
2021/06/29 09:14:29;;;;;;;4.47;2.15;;;;;;;19.79;56.65;101377.34;3578225;40;20053;-78
2021/06/29 09:17:18;;;;;;;7.18;3.15;;;;;;;19.92;56.02;101372.28;3552177;40;20053;-78
2021/06/29 09:19:46;;;;;;;6.65;3.10;;;;;;;19.90;55.15;101369.72;3557304;40;20053;-78
2021/06/29 09:22:33;;;;;;;10.15;3.45;;;;;;;20.12;55.76;101376.56;3573843;40;20087;-78
2021/06/29 09:25:00;;;;;;;;;;;;;;;20.23;55.69;101374.22;3572738;40;20065;-78
2021/06/29 09:27:47;;;;;;;6.80;2.80;;;;;;;20.33;55.44;101378.13;3580016;40;19953;-79
2021/06/29 09:30:34;;;;;;;6.13;2.97;;;;;;;20.42;54.93;101382.06;3567216;40;20109;-78
2021/06/29 09:33:05;;;;;;;;;;;;;;;20.56;54.89;101378.72;3554461;40;20142;-78
2021/06/29 09:35:33;;;;;;;4.68;2.40;;;;;;;20.62;54.64;101384.53;3571975;40;19989;-78
2021/06/29 09:38:08;;;;;;;4.18;2.22;;;;;;;20.93;54.82;101375.78;3563207;40;20059;-79
2021/06/29 09:40:36;;;;;;;5.90;2.83;;;;;;;21.17;53.76;101375.34;3554621;40;20073;-79
2021/06/29 09:43:17;;;;;;;5.93;2.65;;;;;;;21.59;54.00;101382.69;3566853;40;20504;-78
2021/06/29 09:45:47;;;;;;;6.45;3.00;;;;;;;21.82;51.71;101378.69;3552345;40;20073;-79
2021/06/29 09:48:47;;;;;;;7.40;2.95;;;;;;;22.23;52.41;101384.22;3564804;40;20112;-79
2021/06/29 09:51:35;;;;;;;4.38;2.33;;;;;;;22.45;50.38;101381.09;3549006;40;20058;-78
2021/06/29 09:54:05;;;;;;;7.20;3.28;;;;;;;22.80;50.15;101380.72;3558500;40;20124;-78
2021/06/29 09:56:39;;;;;;;4.53;2.58;;;;;;;23.15;48.98;101380.31;3560869;40;20076;-79
2021/06/29 09:59:19;;;;;;;5.70;3.05;;;;;;;23.64;49.89;101380.63;3542062;40;20080;-79
2021/06/29 10:01:46;;;;;;;9.57;3.83;;;;;;;23.96;48.30;101375.78;3550287;40;20054;-79
2021/06/29 10:04:15;;;;;;;4.65;2.17;;;;;;;24.41;47.13;101370.94;3553551;40;20079;-79
2021/06/29 10:06:43;;;;;;;4.68;2.83;;;;;;;24.74;47.13;101361.50;3559972;40;20101;-79
2021/06/29 10:09:16;;;;;;;4.50;2.70;;;;;;;25.33;46.90;101364.31;3552905;40;20081;-79
2021/06/29 10:11:46;;;;;;;6.40;3.03;;;;;;;25.67;45.49;101378.72;3534217;40;20081;-79
2021/06/29 10:14:17;;;;;;;8.02;3.90;;;;;;;26.07;44.01;101368.53;3565399;40;20353;-79
2021/06/29 10:16:50;;;;;;;7.10;2.85;;;;;;;26.44;43.38;101378.22;3561192;40;20069;-79
2021/06/29 10:22:00;;;;;;;6.80;3.30;;;;;;;27.23;42.74;101368.28;3548885;40;20063;-79
2021/06/29 10:24:28;;;;;;;5.93;2.92;;;;;;;27.55;39.93;101377.19;3546888;40;20098;-79
2021/06/29 10:26:58;;;;;;;8.45;3.83;;;;;;;27.93;40.73;101370.47;3560955;40;20450;-80
2021/06/29 10:29:29;;;;;;;7.00;3.00;;;;;;;28.35;40.14;101370.44;3554000;40;20089;-80
2021/06/29 10:32:06;;;;;;;6.40;3.08;;;;;;;28.68;37.79;101362.09;3559853;40;20061;-80
2021/06/29 10:34:34;;;;;;;7.35;3.47;;;;;;;28.98;35.63;101346.94;3545688;40;20116;-80
2021/06/29 10:37:02;;;;;;;6.68;3.28;;;;;;;29.26;37.87;101347.13;3555509;40;20069;-80
2021/06/29 10:39:31;;;;;;;6.78;3.58;;;;;;;29.71;37.09;101359.06;3561389;40;20095;-79
2021/06/29 10:42:03;;;;;;;9.00;3.90;;;;;;;30.12;35.61;101353.44;3571015;40;20093;-80
2021/06/29 10:44:38;;;;;;;4.53;2.67;;;;;;;30.55;38.07;101352.88;3557761;40;20063;-80
2021/06/29 10:47:28;;;;;;;7.22;3.55;;;;;;;30.99;38.21;101343.16;3563077;40;20088;-79
2021/06/29 10:49:58;;;;;;;8.77;3.60;;;;;;;31.20;34.55;101334.78;3564264;40;20064;-79
2021/06/29 10:52:25;;;;;;;6.65;3.60;;;;;;;31.50;34.42;101349.75;3553645;40;20088;-79
2021/06/29 10:54:52;;;;;;;5.90;3.80;;;;;;;31.83;34.62;101351.91;3554158;40;20453;-80
2021/06/29 10:57:23;;;;;;;;;;;;;;;32.43;38.19;101350.09;3560318;40;20080;-80
2021/06/29 10:59:51;;;;;;;10.48;3.92;;;;;;;32.48;31.37;101349.63;3562910;40;19941;-80
2021/06/29 11:02:37;;;;;;;6.95;3.65;;;;;;;32.90;34.16;101346.94;3545478;40;20065;-79
2021/06/29 11:05:07;;;;;;;7.25;3.60;;;;;;;33.01;32.44;101340.38;3564560;40;20065;-80
2021/06/29 11:07:38;;;;;;;9.38;4.05;;;;;;;33.29;31.89;101333.63;3557945;40;20057;-80
2021/06/29 11:10:27;;;;;;;8.80;3.90;;;;;;;33.79;33.95;101338.06;3570680;40;20060;-80
2021/06/29 11:12:56;;;;;;;7.53;3.22;;;;;;;33.93;31.69;101330.28;3562474;40;20323;-80
2021/06/29 11:15:42;;;;;;;5.57;3.38;;;;;;;34.50;33.36;101331.00;3552090;40;20127;-80
2021/06/29 11:18:11;;;;;;;8.82;3.83;;;;;;;34.74;27.38;101330.03;3560535;40;20068;-80
2021/06/29 11:20:49;;;;;;;7.53;4.07;;;;;;;35.24;30.08;101323.31;3563708;40;20076;-80
2021/06/29 11:23:32;;;;;;;7.43;3.78;;;;;;;35.70;29.76;101322.44;3558467;40;20096;-80
2021/06/29 11:26:13;;;;;;;7.30;3.28;;;;;;;36.07;29.31;101329.72;3569050;40;20053;-80
2021/06/29 11:29:05;;;;;;;7.28;3.55;;;;;;;36.54;27.75;101331.22;3564327;40;20052;-80
2021/06/29 11:31:33;;;;;;;8.38;3.95;;;;;;;36.76;27.06;101327.53;3543893;40;20116;-81
2021/06/29 11:34:05;;;;;;;6.63;3.80;;;;;;;37.06;26.43;101328.31;3559004;40;20508;-81
2021/06/29 11:36:32;;;;;;;9.05;3.92;;;;;;;37.34;25.78;101322.06;3561329;40;20060;-80
2021/06/29 11:39:21;;;;;;;9.25;3.47;;;;;;;37.76;26.52;101326.63;3555785;40;20469;-80
2021/06/29 11:41:52;;;;;;;7.60;4.10;;;;;;;38.07;24.98;101326.28;3554855;40;20068;-81
2021/06/29 11:44:19;;;;;;;7.93;3.60;;;;;;;38.16;24.33;101318.75;3565695;40;20113;-81
2021/06/29 11:47:06;;;;;;;5.93;2.97;;;;;;;38.45;25.66;101314.09;3564742;40;20057;-81
2021/06/29 11:49:37;;;;;;;5.95;3.60;;;;;;;38.59;23.78;101322.13;3556560;40;20065;-81